Time;durP1;ratioP1;P1;durP2;ratioP2;P2;SDS_P1;SDS_P2;PMS_P1;PMS_P2;Temp;Humidity;BMP_temperature;BMP_pressure;BME280_temperature;BME280_humidity;BME280_pressure;Samples;Min_cycle;Max_cycle;Signal;HPM_P1;HPM_P2
2022/04/24 00:00:27;;;;;;;;;6.50;6.00;;;;;11.90;50.70;98507.16;5096516;28;9515;-63
2022/04/24 00:02:55;;;;;;;;;9.50;7.25;;;;;11.89;51.14;98505.47;5097116;28;8988;-63
2022/04/24 00:05:23;;;;;;;;;12.00;9.00;;;;;11.87;51.25;98498.63;5097032;28;8826;-63
2022/04/24 00:07:52;;;;;;;;;8.50;7.00;;;;;11.83;51.41;98500.81;5096142;28;8830;-63
2022/04/24 00:10:19;;;;;;;;;7.00;6.67;;;;;11.79;51.26;98499.47;5096821;28;8854;-63
2022/04/24 00:12:48;;;;;;;;;9.00;9.00;;;;;11.75;51.31;98495.47;5096978;28;8834;-63
2022/04/24 00:15:16;;;;;;;;;11.00;9.75;;;;;11.74;51.63;98498.31;5097023;28;9487;-63
2022/04/24 00:17:44;;;;;;;;;6.25;6.25;;;;;11.68;51.45;98497.13;5096258;28;8842;-63
2022/04/24 00:20:11;;;;;;;;;9.25;7.00;;;;;11.65;51.66;98489.47;5078860;28;8860;-63
2022/04/24 00:22:39;;;;;;;;;7.00;7.00;;;;;11.60;51.46;98481.09;5096719;28;8838;-63
2022/04/24 00:25:07;;;;;;;;;7.50;6.50;;;;;11.57;51.78;98488.56;5096631;28;8837;-63
2022/04/24 00:27:34;;;;;;;;;9.00;9.00;;;;;11.53;51.96;98489.91;5096544;28;9001;-64
2022/04/24 00:30:02;;;;;;;;;7.00;7.00;;;;;11.50;52.49;98485.72;5095633;28;8826;-63
2022/04/24 00:32:30;;;;;;;;;9.50;9.50;;;;;11.49;51.75;98483.22;5096140;28;8842;-64
2022/04/24 00:34:58;;;;;;;;;9.00;9.00;;;;;11.48;52.10;98489.56;5095936;28;8849;-64
2022/04/24 00:37:26;;;;;;;;;9.00;7.00;;;;;11.44;52.43;98486.38;5096192;28;8972;-64
2022/04/24 00:39:54;;;;;;;;;6.00;6.00;;;;;11.41;52.20;98484.03;5096510;28;8872;-64
2022/04/24 00:42:21;;;;;;;;;9.25;8.50;;;;;11.38;52.28;98484.34;5096679;28;8890;-64
2022/04/24 00:44:49;;;;;;;;;4.00;4.00;;;;;11.35;52.23;98482.03;5096750;28;8830;-68
2022/04/24 00:47:17;;;;;;;;;7.50;7.00;;;;;11.33;52.47;98477.84;5096396;28;8848;-63
2022/04/24 00:49:45;;;;;;;;;8.50;7.00;;;;;11.30;53.01;98481.66;5095941;28;9555;-63
2022/04/24 00:52:12;;;;;;;;;6.00;4.00;;;;;11.25;52.70;98481.34;5096617;28;8818;-63
2022/04/24 00:54:40;;;;;;;;;7.50;7.00;;;;;11.22;52.42;98483.50;5096160;28;8838;-64
2022/04/24 00:57:09;;;;;;;;;6.00;6.00;;;;;11.18;52.50;98496.31;5096566;28;8930;-63
2022/04/24 00:59:37;;;;;;;;;7.00;7.00;;;;;11.14;52.99;98494.13;5095784;28;8935;-63
2022/04/24 01:02:05;;;;;;;;;7.75;6.00;;;;;11.09;52.71;98486.59;5095713;28;8865;-64
2022/04/24 01:04:32;;;;;;;;;9.50;6.75;;;;;11.06;53.08;98492.25;5095991;28;8968;-63
2022/04/24 01:07:00;;;;;;;;;11.50;11.00;;;;;11.04;53.71;98502.25;5096230;28;8842;-63
2022/04/24 01:09:28;;;;;;;;;8.00;6.75;;;;;11.00;53.32;98492.88;5095739;28;8850;-63
2022/04/24 01:11:56;;;;;;;;;7.50;7.50;;;;;10.99;53.23;98487.75;5095250;28;8961;-63
2022/04/24 01:14:25;;;;;;;;;9.00;7.00;;;;;10.96;53.43;98493.38;5094581;28;8842;-63
2022/04/24 01:16:54;;;;;;;;;12.00;10.00;;;;;10.92;53.68;98486.72;5095630;28;8981;-63
2022/04/24 01:19:21;;;;;;;;;9.75;9.75;;;;;10.89;53.44;98493.19;5097915;28;8919;-63
2022/04/24 01:21:49;;;;;;;;;10.00;9.25;;;;;10.86;53.67;98496.16;5100368;28;8863;-64
2022/04/24 01:24:17;;;;;;;;;6.25;6.25;;;;;10.84;53.44;98506.13;5100131;28;8838;-64
2022/04/24 01:26:45;;;;;;;;;3.75;3.00;;;;;10.80;53.50;98496.81;5100265;28;8860;-63
2022/04/24 01:29:14;;;;;;;;;10.80;10.40;;;;;10.79;53.70;98496.94;5100659;28;9527;-63
2022/04/24 01:31:44;;;;;;;;;9.25;9.00;;;;;10.74;54.08;98496.59;5099985;28;8833;-63
2022/04/24 01:34:12;;;;;;;;;13.50;12.00;;;;;10.69;54.08;98489.06;5100220;28;8852;-63
2022/04/24 01:36:41;;;;;;;;;9.25;9.00;;;;;10.64;54.18;98494.06;5100422;28;8846;-63
2022/04/24 01:39:09;;;;;;;;;10.50;10.00;;;;;10.59;54.27;98485.69;5099897;28;8846;-63
2022/04/24 01:41:36;;;;;;;;;8.50;8.50;;;;;10.55;54.45;98494.97;5099294;28;8822;-64
2022/04/24 01:44:04;;;;;;;;;10.00;9.25;;;;;10.54;54.50;98497.81;5099478;28;8833;-63
2022/04/24 01:46:32;;;;;;;;;8.50;7.00;;;;;10.52;54.55;98484.66;5099411;28;8853;-63
2022/04/24 01:49:00;;;;;;;;;6.00;4.00;;;;;10.50;54.52;98480.47;5098861;28;9493;-63
2022/04/24 01:51:27;;;;;;;;;9.00;9.00;;;;;10.48;54.64;98483.28;5098979;28;8822;-64
2022/04/24 01:53:55;;;;;;;;;7.00;7.00;;;;;10.46;54.35;98482.63;5098918;28;9519;-63
2022/04/24 01:56:23;;;;;;;;;6.50;6.25;;;;;10.43;54.76;98496.25;5098847;28;8834;-63
2022/04/24 01:58:51;;;;;;;;;9.25;9.00;;;;;10.39;54.81;98484.25;5097802;28;8823;-64
2022/04/24 02:01:18;;;;;;;;;9.80;9.00;;;;;10.38;54.77;98487.91;5099021;28;8830;-63
2022/04/24 02:03:46;;;;;;;;;12.00;12.00;;;;;10.33;54.93;98482.19;5099204;28;8834;-63
2022/04/24 02:06:15;;;;;;;;;9.00;9.00;;;;;10.30;54.98;98485.19;5099775;28;8846;-63
2022/04/24 02:08:42;;;;;;;;;9.50;8.75;;;;;10.26;54.68;98483.00;5099103;28;9528;-63
2022/04/24 02:11:10;;;;;;;;;12.25;11.00;;;;;10.20;55.10;98484.47;5099229;28;8892;-63
2022/04/24 02:13:38;;;;;;;;;9.00;9.00;;;;;10.15;55.40;98484.06;5099419;28;8826;-63
2022/04/24 02:16:06;;;;;;;;;8.80;8.80;;;;;10.11;55.32;98484.53;5099309;28;8948;-63
2022/04/24 02:18:34;;;;;;;;;12.00;10.00;;;;;10.08;55.22;98483.03;5099671;28;8834;-63
2022/04/24 02:21:02;;;;;;;;;7.60;6.80;;;;;10.05;55.21;98479.84;5099445;28;8974;-63
2022/04/24 02:23:29;;;;;;;;;9.50;8.00;;;;;10.02;55.51;98475.63;5098893;28;8841;-63
2022/04/24 02:25:57;;;;;;;;;10.80;9.40;;;;;10.00;55.58;98472.28;5099254;28;8871;-63
2022/04/24 02:28:25;;;;;;;;;10.00;9.80;;;;;9.98;55.84;98482.25;5099303;28;8846;-63
2022/04/24 02:30:52;;;;;;;;;9.60;9.40;;;;;9.97;55.82;98485.06;5098271;28;8973;-63
2022/04/24 02:33:20;;;;;;;;;9.00;8.20;;;;;9.96;55.92;98481.56;5099410;28;8850;-63
2022/04/24 02:35:48;;;;;;;;;11.60;9.80;;;;;9.95;55.86;98476.41;5098857;28;8834;-63
2022/04/24 02:38:16;;;;;;;;;7.00;7.00;;;;;9.92;55.99;98477.53;5098962;28;8822;-64
2022/04/24 02:40:43;;;;;;;;;9.00;9.00;;;;;9.92;56.10;98474.03;5098695;28;8862;-64
2022/04/24 02:43:11;;;;;;;;;7.00;6.60;;;;;9.89;56.07;98475.22;5098725;28;8842;-63
2022/04/24 02:45:38;;;;;;;;;6.80;6.80;;;;;9.88;56.16;98480.66;5098636;28;9632;-63
2022/04/24 02:48:06;;;;;;;;;9.20;7.80;;;;;9.86;56.43;98480.00;5098696;28;8931;-64
2022/04/24 02:50:34;;;;;;;;;9.40;7.00;;;;;9.83;56.30;98483.78;5098537;28;8829;-63
2022/04/24 02:53:02;;;;;;;;;12.20;11.20;;;;;9.78;56.13;98488.72;5098584;28;8826;-64
2022/04/24 02:55:29;;;;;;;;;9.80;9.80;;;;;9.76;56.33;98481.88;5098400;28;8880;-63
2022/04/24 02:57:58;;;;;;;;;11.20;9.00;;;;;9.73;56.39;98488.34;5098756;28;8822;-63
2022/04/24 03:00:39;;;;;;;;;7.00;7.00;;;;;9.72;56.48;98488.50;5098696;28;8962;-68
2022/04/24 03:03:07;;;;;;;;;9.60;9.00;;;;;9.68;56.35;98487.97;5096718;28;8858;-63
2022/04/24 03:05:35;;;;;;;;;7.80;6.80;;;;;9.62;56.80;98488.56;5097099;28;8822;-63
2022/04/24 03:08:03;;;;;;;;;9.60;9.00;;;;;9.58;56.64;98484.53;5096839;28;8846;-63
2022/04/24 03:10:30;;;;;;;;;7.20;6.80;;;;;9.51;56.83;98491.47;5084632;28;8875;-63
2022/04/24 03:12:58;;;;;;;;;14.20;14.00;;;;;9.47;56.83;98487.44;5076756;28;8817;-66
2022/04/24 03:15:26;;;;;;;;;11.20;11.20;;;;;9.44;57.01;98484.25;5078228;28;8844;-63
2022/04/24 03:17:54;;;;;;;;;9.60;8.60;;;;;9.41;56.93;98485.38;5078453;28;8842;-64
2022/04/24 03:20:23;;;;;;;;;13.40;10.00;;;;;9.36;56.87;98481.50;5078008;28;8851;-66
2022/04/24 03:22:50;;;;;;;;;10.00;10.00;;;;;9.32;56.95;98474.81;5076626;28;8866;-64
2022/04/24 03:25:18;;;;;;;;;9.20;9.00;;;;;9.30;56.68;98474.97;5077967;28;8832;-63
2022/04/24 03:27:46;;;;;;;;;9.80;9.80;;;;;9.30;57.19;98479.44;5077756;28;8847;-63
2022/04/24 03:30:13;;;;;;;;;12.60;11.20;;;;;9.28;57.60;98478.75;5076478;28;8844;-68
2022/04/24 03:32:41;;;;;;;;;11.60;11.20;;;;;9.29;57.26;98480.44;5076013;28;8979;-63
2022/04/24 03:35:09;;;;;;;;;7.20;6.80;;;;;9.31;57.30;98484.59;5075918;28;8839;-64
2022/04/24 03:37:38;;;;;;;;;10.20;9.40;;;;;9.31;56.91;98479.28;5076016;28;8882;-64
2022/04/24 03:40:06;;;;;;;;;9.60;9.40;;;;;9.31;56.96;98481.09;5075912;28;8856;-64
2022/04/24 03:42:33;;;;;;;;;9.40;8.80;;;;;9.28;56.97;98476.09;5074288;28;8847;-64
2022/04/24 03:45:01;;;;;;;;;6.60;5.20;;;;;9.27;57.33;98477.09;5076820;28;8840;-63
2022/04/24 03:47:30;;;;;;;;;11.60;10.00;;;;;9.27;57.47;98477.91;5077574;28;8954;-63
2022/04/24 03:49:58;;;;;;;;;10.00;10.00;;;;;9.23;57.43;98484.53;5077576;28;8871;-63
2022/04/24 03:52:26;;;;;;;;;11.20;10.80;;;;;9.19;57.69;98480.47;5077394;28;8832;-63
2022/04/24 03:54:54;;;;;;;;;9.20;9.20;;;;;9.18;57.38;98483.31;5077092;28;8841;-63
2022/04/24 03:57:21;;;;;;;;;6.80;5.60;;;;;9.17;57.45;98484.25;5077479;28;8828;-63
2022/04/24 03:59:49;;;;;;;;;6.40;5.20;;;;;9.14;58.07;98490.75;5077072;28;8852;-63
2022/04/24 04:02:17;;;;;;;;;9.80;9.40;;;;;9.13;57.59;98483.72;5076974;28;8860;-63
2022/04/24 04:04:45;;;;;;;;;7.80;7.80;;;;;9.09;57.97;98490.34;5076929;28;8847;-63
2022/04/24 04:07:13;;;;;;;;;8.60;8.60;;;;;9.06;58.12;98495.09;5076689;28;8824;-64
2022/04/24 04:09:41;;;;;;;;;9.60;9.40;;;;;9.02;58.08;98494.56;5076879;28;8856;-63
2022/04/24 04:12:08;;;;;;;;;15.00;13.00;;;;;8.99;58.32;98492.22;5076711;28;8865;-63
2022/04/24 04:14:36;;;;;;;;;10.40;9.40;;;;;8.96;57.86;98492.50;5076208;28;8844;-63
2022/04/24 04:17:05;;;;;;;;;7.60;6.80;;;;;8.94;58.03;98496.28;5076753;28;8824;-64
2022/04/24 04:19:32;;;;;;;;;12.00;10.80;;;;;8.90;58.54;98497.56;5076284;28;8906;-63
2022/04/24 04:22:00;;;;;;;;;7.00;7.00;;;;;8.87;58.23;98496.03;5074871;28;8832;-64
2022/04/24 04:24:28;;;;;;;;;12.00;10.00;;;;;8.84;58.39;98504.31;5075056;28;8848;-63
2022/04/24 04:26:56;;;;;;;;;7.40;6.20;;;;;8.83;58.56;98507.91;5075777;28;9458;-63
2022/04/24 04:29:24;;;;;;;;;10.00;9.00;;;;;8.82;58.55;98505.44;5076484;28;8836;-63
2022/04/24 04:31:51;;;;;;;;;12.00;11.80;;;;;8.83;58.50;98505.25;5076601;28;8891;-63
2022/04/24 04:34:19;;;;;;;;;13.80;12.60;;;;;8.82;58.48;98502.78;5076877;28;8829;-63
2022/04/24 04:36:47;;;;;;;;;15.60;10.00;;;;;8.84;58.96;98506.97;5076409;28;8836;-63
2022/04/24 04:39:15;;;;;;;;;11.80;9.80;;;;;8.84;58.59;98496.34;5075936;28;8914;-63
2022/04/24 04:41:42;;;;;;;;;13.80;12.80;;;;;8.86;58.63;98501.47;5075957;28;8816;-63
2022/04/24 04:44:10;;;;;;;;;12.60;12.40;;;;;8.87;58.50;98501.34;5076271;28;8844;-63
2022/04/24 04:46:38;;;;;;;;;10.80;9.60;;;;;8.89;58.54;98503.88;5075698;28;8844;-64
2022/04/24 04:49:05;;;;;;;;;10.80;9.80;;;;;8.92;59.10;98509.72;5075968;28;8902;-63
2022/04/24 04:51:33;;;;;;;;;10.60;8.60;;;;;8.95;59.04;98514.72;5075895;28;8845;-63
2022/04/24 04:54:01;;;;;;;;;12.40;12.00;;;;;8.97;59.06;98514.59;5074707;28;8824;-63
2022/04/24 04:56:29;;;;;;;;;13.80;11.60;;;;;8.99;58.87;98509.94;5075987;28;8864;-64
2022/04/24 04:58:56;;;;;;;;;12.60;11.20;;;;;9.03;58.98;98516.66;5076144;28;8844;-63
2022/04/24 05:01:24;;;;;;;;;7.40;7.40;;;;;9.06;58.94;98519.84;5075799;28;8850;-63
2022/04/24 05:03:52;;;;;;;;;7.00;7.00;;;;;9.09;58.95;98526.66;5076170;28;8921;-64
2022/04/24 05:06:21;;;;;;;;;12.00;12.00;;;;;9.13;59.19;98526.22;5075840;28;8824;-64
2022/04/24 05:08:49;;;;;;;;;10.40;9.60;;;;;9.17;58.91;98538.22;5075987;28;8856;-63
2022/04/24 05:11:16;;;;;;;;;12.00;11.60;;;;;9.21;59.14;98531.66;5093404;28;8838;-64
2022/04/24 05:13:44;;;;;;;;;9.20;9.20;;;;;9.25;59.01;98542.78;5096158;28;8845;-63
2022/04/24 05:16:12;;;;;;;;;15.40;14.60;;;;;9.29;59.02;98529.09;5096281;28;8826;-63
2022/04/24 05:18:40;;;;;;;;;12.20;11.00;;;;;9.35;58.71;98540.94;5095835;28;8860;-64
2022/04/24 05:21:07;;;;;;;;;9.00;7.80;;;;;9.39;58.93;98535.16;5096149;28;8822;-63
2022/04/24 05:23:35;;;;;;;;;13.40;11.60;;;;;9.46;58.46;98541.56;5095883;28;8850;-63
2022/04/24 05:26:03;;;;;;;;;13.00;12.40;;;;;9.52;58.45;98537.47;5096000;28;8868;-63
2022/04/24 05:28:31;;;;;;;;;12.00;12.00;;;;;9.57;58.59;98533.34;5095580;28;8896;-63
2022/04/24 05:30:58;;;;;;;;;10.80;10.00;;;;;9.62;58.13;98533.75;5095757;28;8846;-63
2022/04/24 05:33:26;;;;;;;;;10.40;9.40;;;;;9.68;58.30;98535.81;5096057;28;8830;-64
2022/04/24 05:35:54;;;;;;;;;8.60;8.60;;;;;9.72;57.83;98541.66;5095438;28;8840;-63
2022/04/24 05:38:28;;;;;;;;;9.80;9.60;;;;;9.77;58.26;98544.69;5096109;28;8845;-63
2022/04/24 05:40:55;;;;;;;;;6.40;6.40;;;;;9.84;58.43;98535.13;5095588;28;8870;-63
2022/04/24 05:43:23;;;;;;;;;13.60;11.80;;;;;9.93;58.04;98536.88;5094806;28;8834;-64
2022/04/24 05:45:51;;;;;;;;;9.80;9.00;;;;;10.02;58.06;98544.75;5094103;28;8861;-63
2022/04/24 05:48:19;;;;;;;;;13.00;12.60;;;;;10.11;57.79;98533.22;5094214;28;8962;-63
2022/04/24 05:50:46;;;;;;;;;10.00;7.40;;;;;10.22;57.50;98537.47;5093890;28;8838;-63
2022/04/24 05:53:14;;;;;;;;;14.20;12.80;;;;;10.31;57.42;98536.59;5093174;28;8822;-63
2022/04/24 05:55:42;;;;;;;;;10.00;9.00;;;;;10.39;57.30;98540.13;5093210;28;8854;-64
2022/04/24 05:58:10;;;;;;;;;10.00;10.00;;;;;10.46;57.55;98543.00;5093042;28;8849;-64
2022/04/24 06:00:38;;;;;;;;;9.00;9.00;;;;;10.51;57.47;98538.88;5092886;28;9018;-63
2022/04/24 06:03:06;;;;;;;;;10.00;9.40;;;;;10.57;57.02;98540.94;5093187;28;9534;-63
2022/04/24 06:05:34;;;;;;;;;6.00;4.40;;;;;10.65;57.16;98540.97;5094653;28;8838;-64
2022/04/24 06:08:01;;;;;;;;;13.00;11.40;;;;;10.77;56.80;98546.88;5097171;28;8849;-63
2022/04/24 06:10:29;;;;;;;;;5.50;4.25;;;;;10.85;56.63;98550.41;5085418;28;8990;-63
2022/04/24 06:12:57;;;;;;;;;13.40;13.00;;;;;10.90;56.93;98552.59;5077204;28;8824;-63
2022/04/24 06:15:24;;;;;;;;;12.00;9.00;;;;;10.95;56.97;98550.28;5076731;28;8862;-63
2022/04/24 06:17:52;;;;;;;;;9.60;8.80;;;;;11.01;56.98;98544.34;5078324;28;8917;-63
2022/04/24 06:20:20;;;;;;;;;12.00;10.00;;;;;11.09;56.26;98542.53;5078734;28;8808;-64
2022/04/24 06:22:48;;;;;;;;;10.50;10.50;;;;;11.15;56.28;98538.41;5077385;28;8846;-64
2022/04/24 06:25:15;;;;;;;;;14.00;13.00;;;;;11.18;56.53;98541.59;5077627;28;8858;-63
2022/04/24 06:27:43;;;;;;;;;10.00;10.00;;;;;11.24;56.54;98546.25;5077053;28;8844;-65
2022/04/24 06:30:11;;;;;;;;;9.50;8.50;;;;;11.33;56.25;98540.00;5078502;28;8840;-64
2022/04/24 06:32:39;;;;;;;;;7.00;7.00;;;;;11.45;56.16;98540.53;5078007;28;8842;-64
2022/04/24 06:35:09;;;;;;;;;11.00;10.75;;;;;11.56;55.55;98533.06;5078485;28;8828;-64
2022/04/24 06:37:37;;;;;;;;;12.00;12.00;;;;;11.66;55.90;98536.44;5078543;28;8932;-63
2022/04/24 06:40:04;;;;;;;;;10.00;10.00;;;;;11.78;55.66;98540.50;5078480;28;8918;-64
2022/04/24 06:42:32;;;;;;;;;12.25;11.50;;;;;11.87;54.95;98539.50;5078030;28;8889;-64
2022/04/24 06:45:00;;;;;;;;;12.00;10.50;;;;;11.95;55.08;98542.16;5078157;28;8878;-64
2022/04/24 06:47:28;;;;;;;;;7.00;7.00;;;;;12.02;55.11;98541.34;5076580;28;8832;-64
2022/04/24 06:49:55;;;;;;;;;10.75;9.50;;;;;12.09;54.71;98544.19;5077819;28;9497;-64
2022/04/24 06:52:23;;;;;;;;;11.25;8.50;;;;;12.18;54.79;98540.53;5077684;28;8854;-64
2022/04/24 06:54:51;;;;;;;;;9.00;9.00;;;;;12.23;54.34;98541.69;5077728;28;8832;-64
2022/04/24 06:57:20;;;;;;;;;12.50;12.50;;;;;12.33;54.56;98541.53;5078028;28;8843;-64
2022/04/24 06:59:47;;;;;;;;;10.00;10.00;;;;;12.41;54.28;98544.19;5077660;28;8836;-64
2022/04/24 07:02:15;;;;;;;;;15.50;14.00;;;;;12.44;54.21;98538.50;5077991;28;8840;-64
2022/04/24 07:04:43;;;;;;;;;9.00;9.00;;;;;12.50;54.31;98545.84;5077423;28;8844;-64
2022/04/24 07:07:11;;;;;;;;;9.50;9.50;;;;;12.53;54.62;98549.00;5077274;28;8950;-64
2022/04/24 07:09:39;;;;;;;;;14.50;13.50;;;;;12.61;54.40;98545.50;5077241;28;8868;-64
2022/04/24 07:12:06;;;;;;;;;10.50;9.75;;;;;12.66;54.35;98551.16;5077256;28;8836;-64
2022/04/24 07:14:34;;;;;;;;;9.25;9.25;;;;;12.70;54.26;98547.16;5077782;28;8880;-64
2022/04/24 07:17:02;;;;;;;;;10.50;9.25;;;;;12.77;53.88;98546.31;5077695;28;8852;-64
2022/04/24 07:19:30;;;;;;;;;12.75;12.00;;;;;12.86;54.17;98547.97;5076635;28;8825;-64
2022/04/24 07:21:58;;;;;;;;;9.50;9.50;;;;;12.96;53.72;98547.78;5056776;28;8830;-64
2022/04/24 07:24:26;;;;;;;;;10.50;10.00;;;;;13.05;53.08;98546.78;5056565;28;8822;-64
2022/04/24 07:26:54;;;;;;;;;9.00;7.00;;;;;13.13;53.76;98538.75;5056967;28;9497;-63
2022/04/24 07:29:22;;;;;;;;;10.50;9.50;;;;;13.21;53.20;98544.88;5057117;28;8854;-65
2022/04/24 07:31:50;;;;;;;;;12.50;10.50;;;;;13.33;53.04;98542.66;5057389;28;8862;-64
2022/04/24 07:34:18;;;;;;;;;10.50;10.00;;;;;13.45;52.72;98546.63;5056935;28;9550;-63
2022/04/24 07:36:47;;;;;;;;;9.75;9.25;;;;;13.58;52.79;98546.91;5057008;28;8842;-64
2022/04/24 07:39:15;;;;;;;;;11.00;10.50;;;;;13.65;52.72;98542.50;5056985;28;8862;-63
2022/04/24 07:41:42;;;;;;;;;15.25;13.00;;;;;13.74;52.54;98544.16;5057163;28;8856;-64
2022/04/24 07:44:10;;;;;;;;;11.00;10.00;;;;;13.82;52.23;98547.59;5056957;28;8858;-64
2022/04/24 07:46:43;;;;;;;;;16.00;15.25;;;;;13.93;52.13;98546.34;5057530;28;9496;-64
2022/04/24 07:49:10;;;;;;;;;13.00;10.50;;;;;14.03;51.64;98545.13;5056890;28;8850;-63
2022/04/24 07:51:38;;;;;;;;;9.50;8.50;;;;;14.15;51.82;98546.38;5077413;28;8851;-64
2022/04/24 07:54:06;;;;;;;;;11.50;10.00;;;;;14.26;52.00;98542.50;5076736;28;8840;-64
2022/04/24 07:56:34;;;;;;;;;13.50;12.00;;;;;14.34;51.85;98542.41;5076390;28;8832;-64
2022/04/24 07:59:02;;;;;;;;;12.25;11.00;;;;;14.42;51.54;98542.34;5058668;28;8911;-64
2022/04/24 08:01:30;;;;;;;;;10.00;8.50;;;;;14.53;51.22;98539.22;5055230;28;8846;-64
2022/04/24 08:03:58;;;;;;;;;16.50;13.00;;;;;14.64;50.89;98546.84;5054696;28;8835;-64
2022/04/24 08:06:25;;;;;;;;;13.00;11.50;;;;;14.76;50.69;98553.41;5055902;28;8932;-64
2022/04/24 08:08:53;;;;;;;;;14.00;13.00;;;;;14.82;50.91;98544.66;5056535;28;8997;-64
2022/04/24 08:11:21;;;;;;;;;13.50;11.50;;;;;14.89;49.93;98551.78;5056555;28;8842;-64
2022/04/24 08:13:48;;;;;;;;;13.25;12.00;;;;;14.95;50.31;98550.22;5056153;28;8827;-64
2022/04/24 08:16:16;;;;;;;;;12.00;10.00;;;;;15.05;50.19;98548.09;5055998;28;8823;-64
2022/04/24 08:18:44;;;;;;;;;14.50;12.75;;;;;15.12;50.27;98555.22;5056604;28;8854;-64
2022/04/24 08:21:13;;;;;;;;;9.50;9.00;;;;;15.18;50.24;98551.78;5056445;28;8846;-64
2022/04/24 08:23:41;;;;;;;;;9.50;9.25;;;;;15.24;49.78;98555.59;5056741;28;8831;-65
2022/04/24 08:26:10;;;;;;;;;16.00;13.00;;;;;15.29;49.53;98550.50;5055627;28;8850;-64
2022/04/24 08:28:38;;;;;;;;;10.50;9.75;;;;;15.33;49.46;98549.16;5066986;28;8866;-64
2022/04/24 08:31:05;;;;;;;;;13.00;13.00;;;;;15.38;49.49;98552.94;5075317;28;8978;-64
2022/04/24 08:33:33;;;;;;;;;14.50;12.25;;;;;15.46;49.93;98544.78;5075985;28;8828;-64
2022/04/24 08:36:02;;;;;;;;;14.50;11.50;;;;;15.55;49.30;98545.53;5076325;28;8858;-64
2022/04/24 08:38:30;;;;;;;;;15.75;15.75;;;;;15.63;49.72;98542.72;5075953;28;8859;-64
2022/04/24 08:40:57;;;;;;;;;10.00;10.00;;;;;15.66;49.27;98535.13;5076084;28;8843;-64
2022/04/24 08:43:25;;;;;;;;;13.00;12.00;;;;;15.76;49.36;98541.03;5076080;28;8824;-63
2022/04/24 08:45:53;;;;;;;;;14.25;13.00;;;;;15.83;49.09;98539.25;5076270;28;8844;-64
2022/04/24 08:48:22;;;;;;;;;13.00;12.75;;;;;15.91;49.16;98543.69;5074893;28;8891;-64
2022/04/24 08:50:50;;;;;;;;;18.00;15.25;;;;;16.00;48.83;98539.84;5074065;28;8848;-64
2022/04/24 08:53:17;;;;;;;;;9.00;7.50;;;;;16.11;48.72;98539.34;5074110;28;8829;-65
2022/04/24 08:55:45;;;;;;;;;14.00;12.50;;;;;16.18;48.36;98541.91;5073604;28;8836;-64
2022/04/24 08:58:13;;;;;;;;;13.50;12.50;;;;;16.27;48.44;98551.50;5075050;28;8875;-64
2022/04/24 09:00:43;;;;;;;;;14.00;13.00;;;;;16.37;47.87;98543.16;5075460;28;8863;-63
2022/04/24 09:03:11;;;;;;;;;16.50;16.50;;;;;16.42;47.63;98546.91;5075004;28;8824;-63
2022/04/24 09:05:39;;;;;;;;;14.50;14.00;;;;;16.53;47.58;98546.41;5075498;28;8836;-64
2022/04/24 09:08:06;;;;;;;;;14.00;11.25;;;;;16.65;47.55;98536.78;5074201;28;8837;-64
2022/04/24 09:10:54;;;;;;;;;15.75;15.50;;;;;16.81;47.00;98544.59;5088769;28;8863;-63
2022/04/24 09:13:22;;;;;;;;;17.50;12.50;;;;;16.92;47.21;98535.13;5089303;28;8850;-64
2022/04/24 09:15:49;;;;;;;;;14.00;11.50;;;;;17.01;47.16;98531.28;5094142;28;8845;-64
2022/04/24 09:18:18;;;;;;;;;12.75;12.75;;;;;17.09;46.72;98525.72;5094230;28;8862;-63
2022/04/24 09:20:45;;;;;;;;;15.25;14.50;;;;;17.21;46.90;98530.34;5095183;28;9788;-63
2022/04/24 09:23:13;;;;;;;;;14.00;13.50;;;;;17.37;46.39;98527.38;5095987;28;9522;-64
2022/04/24 09:25:40;;;;;;;;;16.00;14.50;;;;;17.49;46.02;98531.16;5094997;28;9492;-64
2022/04/24 09:28:08;;;;;;;;;17.00;16.00;;;;;17.70;46.07;98525.63;5095004;28;8814;-64
2022/04/24 09:30:36;;;;;;;;;15.00;13.00;;;;;17.91;45.80;98517.44;5095387;28;8838;-64
2022/04/24 09:33:04;;;;;;;;;12.75;10.50;;;;;18.05;45.17;98518.28;5095544;28;8864;-64
2022/04/24 09:35:32;;;;;;;;;15.00;13.00;;;;;18.14;45.17;98523.28;5095906;28;8838;-64
2022/04/24 09:38:00;;;;;;;;;14.50;13.50;;;;;18.26;44.86;98516.28;5095864;28;8830;-64
2022/04/24 09:40:28;;;;;;;;;16.00;14.00;;;;;18.45;44.96;98515.47;5096085;28;8846;-64
2022/04/24 09:42:56;;;;;;;;;17.75;16.25;;;;;18.72;44.38;98509.06;5097548;28;8853;-64
2022/04/24 09:45:24;;;;;;;;;16.25;15.50;;;;;19.15;43.43;98512.94;5097931;28;8842;-68
2022/04/24 09:48:11;;;;;;;;;10.00;10.00;;;;;19.65;43.08;98514.06;5097458;28;8869;-64
2022/04/24 09:50:39;;;;;;;;;16.00;15.00;;;;;20.23;42.16;98513.78;5098367;28;8842;-63
2022/04/24 09:53:06;;;;;;;;;13.25;13.00;;;;;20.84;41.23;98515.59;5097332;28;8826;-64
2022/04/24 09:55:38;;;;;;;;;19.00;17.50;;;;;21.35;40.89;98509.91;5098794;28;8814;-64
2022/04/24 09:58:06;;;;;;;;;14.40;13.60;;;;;21.67;39.70;98508.72;5098576;28;8830;-64
2022/04/24 10:00:34;;;;;;;;;20.80;18.40;;;;;21.98;39.61;98506.66;5097611;28;8837;-64
2022/04/24 10:03:02;;;;;;;;;20.20;19.40;;;;;22.29;38.82;98497.44;5098844;28;8830;-64
2022/04/24 10:05:30;;;;;;;;;15.20;15.20;;;;;22.58;38.87;98500.16;5098950;28;8841;-64
2022/04/24 10:07:58;;;;;;;;;25.00;22.40;;;;;22.83;38.51;98500.75;5097481;28;8856;-64
2022/04/24 10:10:25;;;;;;;;;17.20;15.00;;;;;23.09;38.08;98502.19;5087533;28;8853;-64
2022/04/24 10:12:54;;;;;;;;;18.80;17.00;;;;;23.18;37.79;98506.22;5077993;28;8949;-64
2022/04/24 10:15:22;;;;;;;;;19.40;18.00;;;;;23.05;37.40;98503.72;5077426;28;8941;-65
2022/04/24 10:17:50;;;;;;;;;16.60;15.60;;;;;22.97;37.58;98504.06;5078082;28;8824;-64
2022/04/24 10:20:18;;;;;;;;;21.40;19.00;;;;;23.19;37.14;98497.00;5078793;28;8828;-64
2022/04/24 10:22:47;;;;;;;;;17.20;16.00;;;;;23.48;36.55;98515.06;5077908;28;8844;-64
2022/04/24 10:25:15;;;;;;;;;16.80;16.80;;;;;23.76;36.29;98507.78;5078364;28;8820;-64
2022/04/24 10:27:43;;;;;;;;;19.20;18.20;;;;;24.14;35.60;98515.38;5077758;28;8844;-64
2022/04/24 10:30:11;;;;;;;;;17.20;15.00;;;;;24.48;35.58;98508.91;5078831;28;8840;-64
2022/04/24 10:32:39;;;;;;;;;19.20;18.20;;;;;24.70;34.69;98510.72;5079244;28;9611;-65
2022/04/24 10:35:06;;;;;;;;;18.40;17.60;;;;;25.00;34.74;98508.50;5078664;28;8832;-64
2022/04/24 10:37:34;;;;;;;;;19.40;15.60;;;;;25.38;33.97;98502.25;5074838;28;8858;-64
2022/04/24 10:40:03;;;;;;;;;21.60;20.20;;;;;25.66;33.20;98500.22;5077786;28;8865;-64
2022/04/24 10:42:31;;;;;;;;;17.00;15.80;;;;;25.88;33.19;98504.59;5077790;28;8844;-64
2022/04/24 10:44:59;;;;;;;;;21.80;19.40;;;;;26.16;33.38;98504.41;5076828;28;8938;-65
2022/04/24 10:47:28;;;;;;;;;18.80;18.00;;;;;26.23;32.56;98498.72;5077278;28;8836;-65
2022/04/24 10:49:56;;;;;;;;;20.80;19.00;;;;;26.35;32.09;98499.41;5076909;28;8840;-64
2022/04/24 10:52:24;;;;;;;;;20.60;19.40;;;;;26.66;32.56;98488.56;5077287;28;8994;-64
2022/04/24 10:54:56;;;;;;;;;22.60;19.60;;;;;26.66;31.67;98496.75;5078017;28;8840;-64
2022/04/24 10:57:26;;;;;;;;;17.20;16.60;;;;;26.42;31.57;98500.84;5077490;28;8896;-64
2022/04/24 10:59:55;;;;;;;;;17.40;16.20;;;;;26.46;31.83;98496.53;5077739;28;8828;-65
2022/04/24 11:02:23;;;;;;;;;19.60;18.60;;;;;26.60;31.20;98503.25;5076324;28;8974;-64
2022/04/24 11:04:51;;;;;;;;;16.60;16.60;;;;;26.55;31.16;98491.47;5077477;28;8853;-64
2022/04/24 11:07:18;;;;;;;;;22.80;20.00;;;;;26.73;30.69;98491.06;5077681;28;9482;-64
2022/04/24 11:09:46;;;;;;;;;22.80;21.20;;;;;26.91;30.76;98488.75;5077262;28;8884;-65
2022/04/24 11:12:13;;;;;;;;;18.60;16.80;;;;;27.16;29.65;98491.69;5076388;28;8832;-64
2022/04/24 11:14:42;;;;;;;;;21.00;20.60;;;;;27.29;30.50;98490.41;5076644;28;8832;-64
2022/04/24 11:17:11;;;;;;;;;18.00;16.60;;;;;27.07;31.09;98497.88;5076923;28;8816;-64
2022/04/24 11:19:39;;;;;;;;;21.60;19.60;;;;;26.61;30.66;98495.84;5077184;28;8859;-64
2022/04/24 11:22:06;;;;;;;;;20.00;19.20;;;;;26.93;31.10;98500.25;5076587;28;8836;-65
2022/04/24 11:24:34;;;;;;;;;17.40;17.00;;;;;27.31;29.92;98491.78;5076804;28;8843;-65
2022/04/24 11:27:02;;;;;;;;;19.80;19.60;;;;;27.62;29.55;98490.06;5076582;28;8836;-64
2022/04/24 11:29:30;;;;;;;;;18.40;16.60;;;;;27.99;29.08;98483.38;5077495;28;8875;-64
2022/04/24 11:31:57;;;;;;;;;16.20;16.00;;;;;28.25;28.89;98485.13;5075875;28;8832;-64
2022/04/24 11:34:25;;;;;;;;;21.80;19.20;;;;;27.85;30.13;98498.66;5075094;28;8832;-65
2022/04/24 11:36:54;;;;;;;;;22.00;19.60;;;;;26.58;31.35;98499.91;5077247;28;8848;-64